Time;durP1;ratioP1;P1;durP2;ratioP2;P2;SDS_P1;SDS_P2;PMS_P1;PMS_P2;Temp;Humidity;BMP_temperature;BMP_pressure;BME280_temperature;BME280_humidity;BME280_pressure;Samples;Min_cycle;Max_cycle;Signal;HPM_P1;HPM_P2
2022/02/14 00:01:20;;;;;;;4.20;3.40;;;1.00;99.90;;;1.80;100.00;97264.34;5036577;28;21070;-74
2022/02/14 00:03:51;;;;;;;6.53;3.23;;;1.00;99.90;;;1.79;100.00;97260.16;5042036;28;20472;-74
2022/02/14 00:06:20;;;;;;;5.97;3.10;;;1.00;99.90;;;1.81;100.00;97260.78;5031373;28;20967;-74
2022/02/14 00:08:52;;;;;;;8.13;3.07;;;1.00;99.90;;;1.77;100.00;97260.28;5034874;28;20464;-74
2022/02/14 00:11:24;;;;;;;5.50;3.20;;;0.90;99.90;;;1.77;100.00;97260.28;5033991;28;20972;-74
2022/02/14 00:13:53;;;;;;;4.47;2.90;;;1.00;99.90;;;1.80;100.00;97248.88;5033899;28;20460;-74
2022/02/14 00:16:24;;;;;;;16.83;3.13;;;1.00;99.90;;;1.77;100.00;97244.03;5034769;28;20472;-74
2022/02/14 00:18:53;;;;;;;4.93;3.00;;;1.00;99.90;;;1.71;100.00;97242.03;5032027;28;20494;-74
2022/02/14 00:21:22;;;;;;;4.27;2.73;;;0.90;99.90;;;1.74;100.00;97232.25;5034905;28;20493;-74
2022/02/14 00:23:53;;;;;;;4.73;2.90;;;1.00;99.90;;;1.78;100.00;97230.16;5034496;28;20529;-74
2022/02/14 00:26:22;;;;;;;8.57;2.77;;;1.10;99.90;;;1.78;100.00;97230.97;5033989;28;20448;-74
2022/02/14 00:28:52;;;;;;;4.30;2.73;;;1.10;99.90;;;1.76;100.00;97226.94;5038407;28;20446;-74
2022/02/14 00:31:22;;;;;;;3.67;2.87;;;1.00;99.90;;;1.77;100.00;97219.06;5036701;28;20862;-74
2022/02/14 00:33:51;;;;;;;3.80;2.30;;;1.00;99.90;;;1.77;100.00;97213.13;5035362;28;20978;-74
2022/02/14 00:36:21;;;;;;;8.40;2.90;;;1.00;99.90;;;1.76;100.00;97217.47;5038311;28;20449;-74
2022/02/14 00:38:52;;;;;;;4.43;2.60;;;1.00;99.90;;;1.78;100.00;97206.97;5035741;28;20494;-74
2022/02/14 00:41:22;;;;;;;3.30;2.70;;;1.10;99.90;;;1.72;100.00;97202.44;5036014;28;20968;-74
2022/02/14 00:43:51;;;;;;;2.47;2.10;;;1.00;99.90;;;1.73;100.00;97201.50;5037792;28;20814;-74
2022/02/14 00:46:21;;;;;;;4.50;2.97;;;1.00;99.90;;;1.75;100.00;97196.97;5036704;28;20485;-74
2022/02/14 00:48:51;;;;;;;3.67;2.27;;;1.00;99.90;;;1.74;100.00;97200.50;5036396;28;20452;-74
2022/02/14 00:51:20;;;;;;;3.33;2.30;;;1.10;99.90;;;1.76;100.00;97193.47;5033847;28;20480;-74
2022/02/14 00:53:50;;;;;;;3.23;2.30;;;1.00;99.90;;;1.77;100.00;97197.66;5037111;28;20451;-74
2022/02/14 00:56:20;;;;;;;4.10;2.17;;;1.00;99.90;;;1.78;100.00;97191.53;5033193;28;20544;-75
2022/02/14 00:58:51;;;;;;;2.27;1.80;;;1.10;99.90;;;1.70;100.00;97189.69;5035913;28;20497;-74
2022/02/14 01:01:21;;;;;;;7.93;2.50;;;1.00;99.90;;;1.74;100.00;97185.06;5035839;28;20562;-74
2022/02/14 01:03:50;;;;;;;5.53;2.43;;;0.90;99.90;;;1.74;100.00;97178.13;5035986;28;20558;-74
2022/02/14 01:06:22;;;;;;;5.00;2.40;;;1.10;99.90;;;1.77;100.00;97187.34;5034890;28;20453;-74
2022/02/14 01:08:52;;;;;;;4.93;2.70;;;1.10;99.90;;;1.80;100.00;97176.72;5036479;28;20449;-74
2022/02/14 01:11:22;;;;;;;2.70;2.10;;;1.10;99.90;;;1.77;100.00;97171.88;5034754;28;20503;-74
2022/02/14 01:13:53;;;;;;;11.87;2.17;;;1.10;99.90;;;1.76;100.00;97160.78;5035812;28;20522;-74
2022/02/14 01:16:23;;;;;;;6.47;3.17;;;1.00;99.90;;;1.78;100.00;97158.03;5037157;28;20472;-74
2022/02/14 01:18:54;;;;;;;3.20;2.60;;;1.10;99.90;;;1.77;100.00;97159.00;5036239;28;20956;-74
2022/02/14 01:21:24;;;;;;;4.50;2.57;;;1.00;99.90;;;1.79;100.00;97151.91;5035320;28;20452;-74
2022/02/14 01:23:55;;;;;;;4.57;2.30;;;1.10;99.90;;;1.79;100.00;97144.19;5035120;28;20454;-74
2022/02/14 01:26:26;;;;;;;9.13;3.13;;;1.10;99.90;;;1.79;100.00;97142.41;5034654;28;20451;-74
2022/02/14 01:28:56;;;;;;;9.13;3.47;;;1.10;99.90;;;1.82;100.00;97149.03;5032807;28;20974;-74
2022/02/14 01:31:27;;;;;;;4.33;2.20;;;1.10;99.90;;;1.84;100.00;97136.81;5034518;28;20457;-74
2022/02/14 01:33:56;;;;;;;3.93;2.87;;;1.20;99.90;;;1.85;100.00;97133.25;5032612;28;20472;-74
2022/02/14 01:36:25;;;;;;;6.77;2.80;;;1.20;99.90;;;1.85;100.00;97136.63;5030617;28;20532;-74
2022/02/14 01:38:55;;;;;;;5.30;2.50;;;1.20;99.90;;;1.88;100.00;97128.59;5034777;28;20488;-74
2022/02/14 01:41:27;;;;;;;8.47;2.50;;;1.20;99.90;;;1.88;100.00;97117.47;5032516;28;21026;-74
2022/02/14 01:43:57;;;;;;;5.23;2.63;;;1.20;99.90;;;1.90;100.00;97118.94;5031249;28;20960;-74
2022/02/14 01:46:27;;;;;;;6.70;2.97;;;1.30;99.90;;;1.95;100.00;97118.47;5032126;28;20490;-74
2022/02/14 01:48:57;;;;;;;3.90;2.13;;;1.40;99.90;;;1.95;100.00;97113.31;5033160;28;20459;-74
2022/02/14 01:51:26;;;;;;;7.03;2.70;;;1.30;99.90;;;1.98;100.00;97110.41;5030881;28;21047;-74
2022/02/14 01:53:55;;;;;;;6.40;2.97;;;1.40;99.90;;;1.97;100.00;97111.41;5031978;28;20531;-74
2022/02/14 01:56:26;;;;;;;7.70;2.80;;;1.40;99.90;;;1.98;100.00;97107.84;5033432;28;20581;-74
2022/02/14 01:58:55;;;;;;;3.20;2.27;;;1.40;99.90;;;2.02;100.00;97104.00;5035576;28;20684;-74
2022/02/14 02:01:24;;;;;;;7.10;2.30;;;1.50;99.90;;;2.08;100.00;97107.72;5032289;28;21062;-74
2022/02/14 02:03:54;;;;;;;6.77;2.67;;;1.50;99.90;;;2.10;100.00;97101.44;5034821;28;20895;-74
2022/02/14 02:06:27;;;;;;;4.20;2.67;;;1.60;99.90;;;2.11;100.00;97097.91;5032403;28;20803;-74
2022/02/14 02:08:57;;;;;;;6.43;2.33;;;1.60;99.90;;;2.17;100.00;97099.03;5030284;28;20709;-74
2022/02/14 02:14:23;;;;;;;5.40;3.00;;;1.70;99.90;;;2.28;100.00;97089.25;5001847;28;20477;-74
2022/02/14 02:16:53;;;;;;;3.10;2.23;;;1.70;99.90;;;2.38;100.00;97089.09;5035660;28;20731;-74
2022/02/14 02:19:22;;;;;;;5.13;2.60;;;1.90;99.90;;;2.45;100.00;97080.56;5034833;28;20529;-74
2022/02/14 02:21:52;;;;;;;5.80;2.60;;;1.90;99.90;;;2.51;100.00;97087.66;5031684;28;20481;-74
2022/02/14 02:24:24;;;;;;;5.40;3.00;;;2.00;99.90;;;2.59;100.00;97081.69;5034316;28;20567;-74
2022/02/14 02:27:00;;;;;;;2.33;2.07;;;2.10;99.90;;;2.65;100.00;97073.28;5032024;28;20533;-74
2022/02/14 02:29:29;;;;;;;8.00;2.47;;;2.10;99.90;;;2.71;100.00;97077.03;5031334;28;20750;-74
2022/02/14 02:32:00;;;;;;;9.63;2.73;;;2.10;99.90;;;2.74;100.00;97074.09;5031822;28;20652;-74
2022/02/14 02:34:30;;;;;;;2.53;2.00;;;2.20;99.90;;;2.76;100.00;97069.56;5032765;28;20876;-74
2022/02/14 02:37:01;;;;;;;3.50;2.17;;;2.20;99.90;;;2.79;100.00;97062.31;5033317;28;20473;-74
2022/02/14 02:39:32;;;;;;;5.37;1.90;;;2.20;99.90;;;2.82;100.00;97061.19;5031057;28;20573;-75
2022/02/14 02:42:04;;;;;;;2.57;1.93;;;2.30;99.90;;;2.85;100.00;97047.94;5033335;28;20541;-75
2022/02/14 02:44:36;;;;;;;6.50;2.47;;;2.30;99.90;;;2.89;100.00;97051.81;5030904;28;20960;-74
2022/02/14 02:47:10;;;;;;;3.93;1.90;;;2.30;99.90;;;2.90;100.00;97048.28;5030519;28;20548;-74
2022/02/14 02:49:40;;;;;;;9.00;2.37;;;2.20;99.90;;;2.92;100.00;97044.56;5033356;28;20468;-74
2022/02/14 02:52:11;;;;;;;6.40;2.60;;;2.30;99.90;;;2.94;100.00;97046.97;5032419;28;20469;-75
2022/02/14 02:54:42;;;;;;;1.80;1.60;;;2.30;99.90;;;2.97;100.00;97037.13;5033414;28;20466;-74
2022/02/14 02:57:14;;;;;;;3.03;1.87;;;2.40;99.90;;;2.97;100.00;97036.31;5033461;28;20496;-75
2022/02/14 02:59:45;;;;;;;3.50;2.10;;;2.30;99.90;;;2.95;100.00;97035.69;5032910;28;20518;-74
2022/02/14 03:02:15;;;;;;;8.87;2.33;;;2.30;99.90;;;3.01;100.00;97032.44;5032765;28;21059;-74
2022/02/14 03:04:47;;;;;;;3.67;2.10;;;2.40;99.90;;;3.01;100.00;97024.69;5034249;28;20468;-74
2022/02/14 03:07:16;;;;;;;4.73;2.37;;;2.40;99.90;;;3.04;100.00;97024.38;5033726;28;20607;-74
2022/02/14 03:09:45;;;;;;;9.93;2.30;;;2.40;99.90;;;3.13;100.00;97033.69;5033756;28;20584;-74
2022/02/14 03:12:21;;;;;;;3.60;2.03;;;2.60;99.90;;;3.18;100.00;97025.47;5033871;28;20813;-74
2022/02/14 03:14:50;;;;;;;3.13;1.87;;;2.60;99.90;;;3.19;100.00;97021.91;5032571;28;20457;-75
2022/02/14 03:17:21;;;;;;;7.70;2.60;;;2.60;99.90;;;3.22;100.00;97008.66;5030687;28;20756;-74
2022/02/14 03:19:51;;;;;;;6.23;2.20;;;2.60;99.90;;;3.26;100.00;97009.94;5034669;28;20493;-74
2022/02/14 03:22:20;;;;;;;4.10;2.13;;;2.70;99.90;;;3.27;100.00;97006.38;5034613;28;20465;-75
2022/02/14 03:24:52;;;;;;;3.27;2.10;;;2.70;99.90;;;3.29;100.00;97007.84;5037179;28;20451;-74
2022/02/14 03:27:24;;;;;;;4.67;2.27;;;2.70;99.90;;;3.29;100.00;97007.03;5035335;28;20528;-74
2022/02/14 03:29:55;;;;;;;4.40;2.47;;;2.70;99.90;;;3.31;100.00;97000.72;5037315;28;20464;-74
2022/02/14 03:32:24;;;;;;;3.80;1.90;;;2.70;99.90;;;3.29;100.00;96999.28;5035153;28;20499;-74
2022/02/14 03:34:54;;;;;;;3.63;2.10;;;2.70;99.90;;;3.28;100.00;96998.47;5036738;28;20476;-74
2022/02/14 03:37:24;;;;;;;2.70;1.60;;;2.60;99.90;;;3.27;100.00;96994.25;5035537;28;20469;-75
2022/02/14 03:39:56;;;;;;;6.80;2.20;;;2.60;99.90;;;3.25;100.00;97000.56;5036065;28;20551;-74
2022/02/14 03:42:26;;;;;;;1.90;1.63;;;2.60;99.90;;;3.24;100.00;96999.75;5036647;28;20893;-75
2022/02/14 03:44:59;;;;;;;7.20;2.00;;;2.50;99.90;;;3.28;100.00;97001.03;5038932;28;20476;-74
2022/02/14 03:47:28;;;;;;;4.10;1.83;;;2.70;99.90;;;3.26;100.00;96994.44;5033154;28;20737;-75
2022/02/14 03:49:58;;;;;;;2.30;1.73;;;2.60;99.90;;;3.24;100.00;96997.19;5033572;28;20527;-74
2022/02/14 03:52:27;;;;;;;3.70;2.00;;;2.50;99.90;;;3.25;100.00;96996.22;5036851;28;20458;-74
2022/02/14 03:54:56;;;;;;;5.53;1.60;;;2.60;99.90;;;3.25;100.00;96992.81;5034380;28;20504;-75
2022/02/14 03:57:27;;;;;;;4.20;1.80;;;2.50;99.90;;;3.23;100.00;96998.16;5036379;28;20462;-74
2022/02/14 03:59:57;;;;;;;3.47;2.10;;;2.50;99.90;;;3.23;100.00;96997.38;5032134;28;20469;-74
2022/02/14 04:02:27;;;;;;;2.80;1.40;;;2.50;99.90;;;3.20;100.00;96995.91;5033005;28;20493;-75
2022/02/14 04:04:56;;;;;;;2.17;1.40;;;2.50;99.90;;;3.22;100.00;96988.81;5035922;28;20526;-74
2022/02/14 04:07:26;;;;;;;12.43;2.00;;;2.50;99.90;;;3.22;100.00;96990.59;5037027;28;20474;-75
2022/02/14 04:09:55;;;;;;;3.20;1.73;;;2.50;99.90;;;3.21;100.00;96984.59;5034851;28;20476;-75
2022/02/14 04:12:27;;;;;;;4.63;1.80;;;2.50;99.90;;;3.19;100.00;96994.31;5034099;28;21208;-74
2022/02/14 04:14:57;;;;;;;8.53;1.50;;;2.50;99.90;;;3.20;100.00;96987.34;5033699;28;20989;-75
2022/02/14 04:17:28;;;;;;;3.03;1.80;;;2.50;99.90;;;3.20;100.00;96982.19;5032378;28;20473;-74
2022/02/14 04:19:57;;;;;;;1.65;1.55;;;2.50;99.90;;;3.19;100.00;96981.41;5035365;28;20894;-74
2022/02/14 04:22:27;;;;;;;2.83;1.80;;;2.50;99.90;;;3.18;100.00;96984.13;5034237;28;20539;-75
2022/02/14 04:24:56;;;;;;;4.30;1.77;;;2.50;99.90;;;3.18;100.00;96986.72;5034307;28;20520;-74
2022/02/14 04:27:27;;;;;;;3.27;2.00;;;2.50;99.90;;;3.20;100.00;96979.59;5032889;28;20825;-74
2022/02/14 04:30:01;;;;;;;2.00;1.50;;;2.50;99.90;;;3.16;100.00;96981.69;5035018;28;20468;-75
2022/02/14 04:32:33;;;;;;;3.73;1.80;;;2.50;99.90;;;3.18;100.00;96990.09;5032050;28;20789;-74
2022/02/14 04:35:02;;;;;;;5.03;1.97;;;2.50;99.90;;;3.19;100.00;96986.56;5035951;28;20474;-74
2022/02/14 04:37:32;;;;;;;2.50;1.63;;;2.50;99.90;;;3.23;100.00;96982.66;5034065;28;20477;-75
2022/02/14 04:40:02;;;;;;;6.53;1.50;;;2.60;99.90;;;3.24;100.00;96988.63;5032694;28;20758;-75
2022/02/14 04:42:33;;;;;;;1.93;1.70;;;2.60;99.90;;;3.26;100.00;96991.88;5034635;28;20458;-74
2022/02/14 04:45:03;;;;;;;2.30;1.70;;;2.60;99.90;;;3.27;100.00;96990.88;5032670;28;20516;-74
2022/02/14 04:47:33;;;;;;;3.73;2.20;;;2.70;99.90;;;3.30;100.00;96983.59;5036608;28;20524;-74
2022/02/14 04:50:03;;;;;;;4.37;1.83;;;2.70;99.90;;;3.31;100.00;96974.88;5032468;28;20549;-74
2022/02/14 04:52:34;;;;;;;3.03;2.40;;;2.70;99.90;;;3.32;100.00;96981.66;5033869;28;20503;-75
2022/02/14 04:55:04;;;;;;;3.00;2.27;;;2.70;99.90;;;3.34;100.00;96984.06;5032400;28;20468;-74
2022/02/14 04:57:36;;;;;;;3.10;2.43;;;2.70;99.90;;;3.35;100.00;96980.50;5032143;28;20473;-75
2022/02/14 05:00:13;;;;;;;4.33;2.10;;;2.60;99.90;;;3.38;100.00;96980.97;5034210;28;20483;-74
2022/02/14 05:02:43;;;;;;;2.90;2.20;;;2.60;99.90;;;3.38;100.00;96975.81;5033044;28;20493;-75
2022/02/14 05:05:13;;;;;;;7.83;2.43;;;2.60;99.90;;;3.40;100.00;96979.03;5036338;28;20515;-74
2022/02/14 05:07:42;;;;;;;3.40;2.40;;;2.70;99.90;;;3.42;100.00;96969.34;5036038;28;20455;-74
2022/02/14 05:10:13;;;;;;;7.80;3.23;;;2.70;99.90;;;3.44;100.00;96972.56;5035996;28;20471;-75
2022/02/14 05:12:43;;;;;;;5.40;2.80;;;2.80;99.90;;;3.48;100.00;96957.50;5034179;28;20462;-74
2022/02/14 05:15:12;;;;;;;5.90;2.77;;;2.80;99.90;;;3.51;100.00;96970.91;5035826;28;20950;-74
2022/02/14 05:17:42;;;;;;;4.40;3.03;;;2.90;99.90;;;3.53;100.00;96963.81;5034997;28;20464;-75
2022/02/14 05:20:12;;;;;;;2.53;2.33;;;3.00;99.90;;;3.55;100.00;96968.78;5036929;28;20488;-74
2022/02/14 05:22:42;;;;;;;2.83;2.53;;;3.00;99.90;;;3.60;100.00;96960.53;5033312;28;20492;-75
2022/02/14 05:25:11;;;;;;;4.90;2.50;;;3.00;99.90;;;3.62;100.00;96968.91;5031789;28;20791;-74
2022/02/14 05:27:43;;;;;;;3.80;2.60;;;3.00;99.90;;;3.65;100.00;96968.56;5032009;28;20502;-75
2022/02/14 05:30:14;;;;;;;3.57;2.37;;;3.00;99.90;;;3.66;100.00;96967.59;5031574;28;20896;-74
2022/02/14 05:32:43;;;;;;;2.60;2.40;;;3.00;99.90;;;3.68;100.00;96970.84;5032226;28;20558;-74
2022/02/14 05:35:12;;;;;;;3.17;2.27;;;3.00;99.90;;;3.71;100.00;96968.72;5030260;28;20470;-74
2022/02/14 05:37:42;;;;;;;3.30;2.10;;;3.10;99.90;;;3.72;100.00;96972.06;5032189;28;20509;-75
2022/02/14 05:40:12;;;;;;;3.00;2.40;;;3.00;99.90;;;3.74;100.00;96973.53;5028247;28;20552;-74
2022/02/14 05:42:44;;;;;;;5.83;2.40;;;3.10;99.90;;;3.76;100.00;96966.41;5030139;28;20505;-74
2022/02/14 05:45:15;;;;;;;2.03;1.87;;;3.10;99.90;;;3.79;100.00;96971.22;5032661;28;20467;-74
2022/02/14 05:47:45;;;;;;;4.30;2.40;;;3.10;99.90;;;3.82;100.00;96967.50;5032991;28;20473;-74
2022/02/14 05:50:16;;;;;;;6.10;1.97;;;3.20;99.90;;;3.86;100.00;96963.59;5034543;28;20498;-74
2022/02/14 05:52:46;;;;;;;2.80;2.30;;;3.20;99.90;;;3.86;100.00;96968.75;5034058;28;20469;-75
2022/02/14 05:55:19;;;;;;;4.47;1.83;;;3.20;99.90;;;3.89;100.00;96974.38;5032811;28;20891;-74
2022/02/14 05:57:52;;;;;;;4.67;2.70;;;3.30;99.90;;;3.95;100.00;96968.56;5031428;28;20465;-74
2022/02/14 06:00:22;;;;;;;2.60;2.10;;;3.40;99.90;;;3.98;100.00;96977.75;5031436;28;20594;-74
2022/02/14 06:02:52;;;;;;;4.40;1.87;;;3.50;99.90;;;4.01;100.00;96985.16;5029885;28;20511;-75
2022/02/14 06:05:22;;;;;;;8.10;3.57;;;3.50;99.90;;;4.09;100.00;96976.53;5026582;28;20457;-82
2022/02/14 06:07:52;;;;;;;7.77;4.20;;;3.50;99.90;;;4.14;100.00;96971.63;5030406;28;20464;-74
2022/02/14 06:10:23;;;;;;;12.50;2.67;;;3.60;99.90;;;4.18;100.00;96967.72;5029803;28;20494;-74
2022/02/14 06:12:53;;;;;;;7.50;2.80;;;3.60;99.90;;;4.26;100.00;96973.66;5029791;28;20516;-74
2022/02/14 06:15:24;;;;;;;3.40;2.47;;;3.80;99.90;;;4.31;100.00;96973.13;5032987;28;20466;-74
2022/02/14 06:17:54;;;;;;;3.13;2.30;;;3.80;99.90;;;4.35;100.00;96962.25;5035068;28;20956;-75
2022/02/14 06:20:25;;;;;;;3.30;1.97;;;3.80;99.90;;;4.38;100.00;96967.06;5030004;28;20469;-75
2022/02/14 06:22:55;;;;;;;5.00;2.13;;;3.80;99.90;;;4.45;100.00;96970.56;5033172;28;20554;-75
2022/02/14 06:25:26;;;;;;;5.60;2.47;;;3.90;99.90;;;4.56;100.00;96977.09;5034022;28;20449;-75
2022/02/14 06:27:57;;;;;;;2.97;2.20;;;4.00;99.90;;;4.63;100.00;96974.63;5029639;28;20475;-75
2022/02/14 06:30:27;;;;;;;4.00;2.20;;;4.10;99.90;;;4.67;100.00;96968.13;5033026;28;20468;-75
2022/02/14 06:32:56;;;;;;;4.07;2.37;;;4.20;99.90;;;4.76;100.00;96973.03;5032561;28;20891;-75
2022/02/14 06:35:27;;;;;;;5.53;3.00;;;4.30;99.90;;;4.82;100.00;96968.94;5031942;28;21101;-75
2022/02/14 06:37:57;;;;;;;127.93;50.43;;;4.40;99.90;;;4.87;100.00;96974.38;5030069;28;20539;-81
2022/02/14 06:40:27;;;;;;;29.20;14.80;;;4.40;99.90;;;4.91;100.00;96975.63;5031254;28;20464;-75
2022/02/14 06:42:59;;;;;;;10.80;3.17;;;4.40;99.90;;;4.94;100.00;96965.72;5032087;28;21053;-75
2022/02/14 06:45:28;;;;;;;5.63;2.33;;;4.50;99.90;;;4.97;100.00;96975.72;5034644;28;20817;-74
2022/02/14 06:47:58;;;;;;;5.97;3.50;;;4.50;99.90;;;5.02;100.00;96973.41;5032836;28;20465;-74
2022/02/14 06:50:27;;;;;;;7.73;2.87;;;4.60;99.90;;;5.08;100.00;96961.53;5034659;28;20468;-75
2022/02/14 06:52:56;;;;;;;6.17;2.73;;;4.60;99.90;;;5.14;100.00;96970.38;5034934;28;20550;-75
2022/02/14 06:55:27;;;;;;;3.83;2.33;;;4.70;99.90;;;5.16;100.00;96977.00;5034410;28;20456;-74
2022/02/14 06:57:58;;;;;;;8.20;2.77;;;4.70;99.90;;;5.18;100.00;96969.81;5031541;28;20442;-75
2022/02/14 07:00:29;;;;;;;2.13;1.80;;;4.70;99.90;;;5.21;100.00;96973.84;5033020;28;20490;-76
2022/02/14 07:02:58;;;;;;;14.33;2.50;;;4.70;99.90;;;5.24;100.00;96978.69;5031870;28;20497;-75
2022/02/14 07:05:29;;;;;;;4.83;2.40;;;4.80;99.90;;;5.25;100.00;96978.50;5034673;28;20469;-75
2022/02/14 07:08:00;;;;;;;8.40;2.60;;;4.70;99.90;;;5.27;100.00;96979.13;5034916;28;20460;-75
2022/02/14 07:10:32;;;;;;;4.20;2.60;;;4.70;99.90;;;5.30;100.00;96975.38;5035085;28;20458;-75
2022/02/14 07:13:03;;;;;;;3.37;2.33;;;4.80;99.90;;;5.35;100.00;96973.03;5033934;28;20449;-75
2022/02/14 07:15:33;;;;;;;13.83;3.70;;;4.80;99.90;;;5.44;100.00;96977.13;5033908;28;20814;-75
2022/02/14 07:18:05;;;;;;;8.13;2.97;;;4.90;99.90;;;5.48;100.00;96986.94;5032157;28;20537;-75
2022/02/14 07:20:35;;;;;;;3.63;2.30;;;5.00;99.90;;;5.51;100.00;96988.41;5032972;28;21138;-75
2022/02/14 07:23:08;;;;;;;6.00;2.80;;;5.00;99.90;;;5.55;100.00;96980.06;5031015;28;20504;-75
2022/02/14 07:25:39;;;;;;;4.67;2.73;;;5.10;99.90;;;5.58;100.00;96990.09;5027398;28;20974;-75
2022/02/14 07:28:11;;;;;;;162.97;25.97;;;5.10;99.90;;;5.61;100.00;96996.69;5028484;28;20542;-74
2022/02/14 07:30:40;;;;;;;170.43;37.10;;;5.10;99.90;;;5.63;100.00;96997.31;5029337;28;20542;-75
2022/02/14 07:33:10;;;;;;;17.00;5.17;;;5.10;99.90;;;5.66;100.00;96991.75;5033580;28;20544;-75
2022/02/14 07:35:40;;;;;;;43.63;6.87;;;5.20;99.90;;;5.69;100.00;96999.19;5036743;28;20819;-75
2022/02/14 07:38:10;;;;;;;60.77;12.17;;;5.20;99.90;;;5.70;100.00;96999.97;5038712;28;20519;-74
2022/02/14 07:40:41;;;;;;;15.53;3.37;;;5.20;99.90;;;5.72;100.00;96998.00;5037374;28;20460;-75
2022/02/14 07:43:14;;;;;;;15.87;5.33;;;5.20;99.90;;;5.72;100.00;96996.22;5038485;28;20577;-75
2022/02/14 07:45:45;;;;;;;38.97;10.30;;;5.20;99.90;;;5.76;100.00;97005.22;5037063;28;20481;-75
2022/02/14 07:48:15;;;;;;;75.77;13.10;;;5.30;99.90;;;5.78;100.00;96997.28;5037308;28;20452;-75
2022/02/14 07:50:45;;;;;;;64.20;12.67;;;5.20;99.90;;;5.79;100.00;96999.69;5037292;28;20460;-76
2022/02/14 07:53:18;;;;;;;10.53;3.40;;;5.20;99.90;;;5.78;100.00;96999.88;5038394;28;20454;-76
2022/02/14 07:55:47;;;;;;;13.30;3.97;;;5.20;99.90;;;5.78;100.00;96994.69;5036869;28;20958;-75
2022/02/14 07:58:19;;;;;;;14.93;3.73;;;5.20;99.90;;;5.76;100.00;96986.28;5035986;28;20549;-76
2022/02/14 08:00:50;;;;;;;14.23;3.50;;;5.10;99.90;;;5.77;100.00;96993.06;5037674;28;21007;-76
2022/02/14 08:03:21;;;;;;;135.87;23.40;;;5.10;99.90;;;5.77;100.00;96987.88;5038036;28;20500;-76
2022/02/14 08:05:52;;;;;;;10.60;3.57;;;5.10;99.90;;;5.78;100.00;96981.72;5037562;28;20804;-76
2022/02/14 08:08:21;;;;;;;11.03;4.53;;;5.20;99.90;;;5.81;100.00;96987.34;5038088;28;20464;-78
2022/02/14 08:10:53;;;;;;;3.43;2.33;;;5.30;99.90;;;5.82;100.00;96983.78;5037503;28;20450;-75
2022/02/14 08:13:25;;;;;;;44.17;9.90;;;5.20;99.90;;;5.81;100.00;96983.94;5032545;28;20516;-75
2022/02/14 08:15:55;;;;;;;15.63;4.20;;;5.20;99.90;;;5.86;100.00;96986.81;5031119;28;21511;-77
2022/02/14 08:18:25;;;;;;;18.50;5.83;;;5.30;99.90;;;5.88;100.00;96990.03;5034906;28;20473;-75
2022/02/14 08:20:55;;;;;;;26.10;5.40;;;5.30;99.90;;;5.91;100.00;96990.47;5031314;28;20471;-75
2022/02/14 08:23:26;;;;;;;12.97;4.77;;;5.40;99.90;;;5.91;100.00;96987.88;5029914;28;20492;-75
2022/02/14 08:25:56;;;;;;;12.93;2.50;;;5.40;99.90;;;5.95;100.00;96990.91;5030692;28;20487;-75
2022/02/14 08:28:28;;;;;;;22.87;5.57;;;5.40;99.90;;;5.96;100.00;96982.94;5030952;28;20473;-75
2022/02/14 08:30:58;;;;;;;17.57;3.17;;;5.40;99.90;;;5.97;100.00;96989.72;5030875;28;20824;-75
2022/02/14 08:33:28;;;;;;;11.63;3.37;;;5.40;99.90;;;5.99;100.00;96989.56;5030470;28;20469;-75
2022/02/14 08:35:58;;;;;;;6.80;3.00;;;5.40;99.90;;;5.97;100.00;96987.13;5032745;28;20462;-75
2022/02/14 08:38:28;;;;;;;5.53;2.57;;;5.40;99.90;;;6.04;100.00;96989.78;5031921;28;20458;-75
2022/02/14 08:40:58;;;;;;;9.27;2.27;;;5.50;99.90;;;6.07;100.00;96995.41;5031415;28;20914;-75
2022/02/14 08:43:29;;;;;;;3.53;2.30;;;5.60;99.90;;;6.20;100.00;96989.56;5032205;28;21884;-75
2022/02/14 08:46:08;;;;;;;5.83;2.40;;;5.70;99.90;;;6.22;100.00;96987.56;5030785;28;20457;-75
2022/02/14 08:48:38;;;;;;;6.33;2.70;;;5.70;99.90;;;6.25;100.00;96994.22;5032831;28;21032;-75
2022/02/14 08:51:09;;;;;;;5.37;2.00;;;5.80;99.90;;;6.27;100.00;96992.22;5030899;28;20557;-75
2022/02/14 08:53:40;;;;;;;1.87;1.70;;;5.80;99.90;;;6.36;100.00;96985.91;5033937;28;20461;-75
2022/02/14 08:56:10;;;;;;;130.00;62.27;;;5.90;99.90;;;6.37;100.00;96983.13;5033504;28;20469;-82
2022/02/14 08:58:43;;;;;;;15.10;5.53;;;5.80;99.90;;;6.41;100.00;96986.16;5031498;28;21039;-75
2022/02/14 09:01:12;;;;;;;3.47;2.07;;;6.00;99.90;;;6.45;100.00;96995.19;5032647;28;20488;-75
2022/02/14 09:03:43;;;;;;;5.50;2.30;;;6.00;99.90;;;6.58;100.00;96984.91;5036927;28;20508;-75
2022/02/14 09:06:14;;;;;;;5.53;2.20;;;6.20;99.90;;;6.66;100.00;96989.97;5034097;28;20464;-75
2022/02/14 09:08:45;;;;;;;2.80;2.33;;;6.20;99.90;;;6.72;100.00;96984.00;5035122;28;20686;-75
2022/02/14 09:11:15;;;;;;;22.60;3.00;;;6.30;99.90;;;6.77;100.00;96988.66;5034064;28;20481;-75
2022/02/14 09:13:49;;;;;;;6.07;2.07;;;6.40;99.90;;;6.81;100.00;96982.06;5033743;28;20477;-75
2022/02/14 09:16:21;;;;;;;6.20;2.60;;;6.40;99.90;;;6.86;100.00;96984.91;5032303;28;20468;-75
2022/02/14 09:18:51;;;;;;;4.13;2.30;;;6.40;99.90;;;6.89;100.00;96981.91;5036319;28;20954;-75
2022/02/14 09:21:23;;;;;;;8.13;2.60;;;6.40;99.90;;;6.93;100.00;96975.34;5032662;28;21128;-75
2022/02/14 09:23:54;;;;;;;5.80;2.47;;;6.50;99.90;;;7.00;100.00;96976.19;5031427;28;20482;-75
2022/02/14 09:26:24;;;;;;;2.70;2.00;;;6.50;99.90;;;7.02;100.00;96982.00;5032791;28;20652;-75
2022/02/14 09:28:55;;;;;;;3.60;2.20;;;6.50;99.90;;;7.06;100.00;96980.63;5032025;28;20935;-75
2022/02/14 09:31:26;;;;;;;3.20;1.83;;;6.60;99.90;;;7.09;100.00;96975.84;5033134;28;21290;-77
2022/02/14 09:33:57;;;;;;;10.93;3.13;;;6.70;99.90;;;7.13;100.00;96975.47;5034388;28;20484;-75
2022/02/14 09:36:27;;;;;;;5.17;2.83;;;6.70;99.90;;;7.16;100.00;96975.06;5032037;28;20461;-75
2022/02/14 09:38:58;;;;;;;3.17;2.20;;;6.70;99.90;;;7.18;100.00;96968.72;5029816;28;20465;-75
2022/02/14 09:41:29;;;;;;;3.80;1.63;;;6.70;99.90;;;7.23;100.00;96965.53;5029493;28;20465;-79
2022/02/14 09:44:03;;;;;;;4.90;3.10;;;6.80;99.90;;;7.27;100.00;96972.75;5030298;28;20503;-75
2022/02/14 09:46:36;;;;;;;4.43;2.23;;;6.80;99.90;;;7.32;100.00;96969.59;5030304;28;20469;-76
2022/02/14 09:49:07;;;;;;;14.33;2.43;;;6.90;99.90;;;7.35;100.00;96964.78;5031268;28;20834;-75
2022/02/14 09:51:38;;;;;;;10.03;3.00;;;6.90;99.90;;;7.37;100.00;96965.41;5031477;28;21023;-75
2022/02/14 09:54:08;;;;;;;8.77;2.47;;;6.90;99.90;;;7.41;100.00;96961.41;5028569;28;20462;-75
2022/02/14 09:56:38;;;;;;;9.60;3.20;;;6.90;99.90;;;7.44;100.00;96963.63;5030429;28;20981;-75
2022/02/14 09:59:10;;;;;;;4.80;1.90;;;7.00;99.90;;;7.47;100.00;96967.63;5030062;28;20499;-76
2022/02/14 10:01:45;;;;;;;9.13;2.83;;;7.00;99.90;;;7.49;100.00;96973.47;5030640;28;20497;-75
2022/02/14 10:04:16;;;;;;;2.83;1.90;;;7.00;99.90;;;7.52;100.00;96975.66;5029500;28;20507;-75
2022/02/14 10:06:47;;;;;;;3.33;2.03;;;7.10;99.90;;;7.52;100.00;96976.47;5031432;28;20458;-75
2022/02/14 10:09:22;;;;;;;6.60;2.50;;;7.00;99.90;;;7.52;100.00;96979.06;5031014;28;20771;-75
2022/02/14 10:12:03;;;;;;;4.20;2.30;;;7.10;99.90;;;7.50;100.00;96978.44;5030466;28;20458;-75
2022/02/14 10:14:35;;;;;;;8.00;2.70;;;7.00;99.90;;;7.50;100.00;96981.03;5029729;28;20895;-75
2022/02/14 10:17:09;;;;;;;4.87;2.27;;;7.00;99.90;;;7.51;100.00;96990.47;5028970;28;20476;-75
2022/02/14 10:19:45;;;;;;;6.13;2.17;;;7.00;99.90;;;7.51;100.00;96990.47;5029020;28;20984;-75
2022/02/14 10:22:16;;;;;;;4.60;2.07;;;7.00;99.90;;;7.52;100.00;96984.28;5029094;28;20492;-75
2022/02/14 10:24:47;;;;;;;5.73;2.63;;;7.00;99.90;;;7.51;100.00;96987.88;5031270;28;20551;-75
2022/02/14 10:27:18;;;;;;;5.87;2.30;;;6.90;99.90;;;7.51;100.00;96990.47;5026239;28;20977;-75
2022/02/14 10:29:48;;;;;;;3.47;2.03;;;6.90;99.90;;;7.51;100.00;97000.88;5030502;28;20546;-75
2022/02/14 10:32:20;;;;;;;5.50;2.87;;;6.90;99.90;;;7.50;100.00;96995.84;5032776;28;20470;-75
2022/02/14 10:34:54;;;;;;;5.03;2.13;;;6.90;99.90;;;7.50;100.00;97001.03;5026192;28;20567;-75
2022/02/14 10:37:42;;;;;;;8.10;2.40;;;6.90;99.90;;;7.52;100.00;96992.06;5032632;28;20910;-74
2022/02/14 10:40:28;;;;;;;55.97;24.53;;;7.00;99.90;;;7.54;100.00;96994.47;5032710;28;20696;-75
2022/02/14 10:42:58;;;;;;;8.53;3.60;;;7.00;99.90;;;7.55;100.00;97002.09;5031461;28;20463;-75